sensor_id;sensor_type;location;lat;lon;timestamp;P1;durP1;ratioP1;P2;durP2;ratioP2
59300;SDS011;45073;52.740;6.784;2023-04-24T00:02:03;3.40;;;1.58;;
59300;SDS011;45073;52.740;6.784;2023-04-24T00:04:31;4.10;;;1.60;;
59300;SDS011;45073;52.740;6.784;2023-04-24T00:06:57;3.63;;;1.65;;
59300;SDS011;45073;52.740;6.784;2023-04-24T00:09:25;4.57;;;1.90;;
59300;SDS011;45073;52.740;6.784;2023-04-24T00:11:51;4.00;;;1.88;;
59300;SDS011;45073;52.740;6.784;2023-04-24T00:14:17;4.55;;;1.90;;
59300;SDS011;45073;52.740;6.784;2023-04-24T00:16:43;4.63;;;1.90;;
59300;SDS011;45073;52.740;6.784;2023-04-24T00:19:08;4.05;;;1.75;;
59300;SDS011;45073;52.740;6.784;2023-04-24T00:21:34;4.53;;;2.20;;
59300;SDS011;45073;52.740;6.784;2023-04-24T00:24:00;5.70;;;2.20;;
59300;SDS011;45073;52.740;6.784;2023-04-24T00:26:25;5.40;;;2.00;;
59300;SDS011;45073;52.740;6.784;2023-04-24T00:28:51;4.25;;;1.67;;
59300;SDS011;45073;52.740;6.784;2023-04-24T00:31:16;4.53;;;1.88;;
59300;SDS011;45073;52.740;6.784;2023-04-24T00:33:42;4.55;;;1.92;;
59300;SDS011;45073;52.740;6.784;2023-04-24T00:36:08;6.50;;;2.33;;
59300;SDS011;45073;52.740;6.784;2023-04-24T00:38:34;5.65;;;2.47;;
59300;SDS011;45073;52.740;6.784;2023-04-24T00:41:00;5.80;;;2.13;;
59300;SDS011;45073;52.740;6.784;2023-04-24T00:43:25;4.72;;;1.60;;
59300;SDS011;45073;52.740;6.784;2023-04-24T00:45:51;1.80;;;1.00;;
59300;SDS011;45073;52.740;6.784;2023-04-24T00:48:17;2.20;;;1.10;;
59300;SDS011;45073;52.740;6.784;2023-04-24T00:50:43;2.53;;;1.00;;
59300;SDS011;45073;52.740;6.784;2023-04-24T00:53:09;2.30;;;0.95;;
59300;SDS011;45073;52.740;6.784;2023-04-24T00:55:34;2.45;;;1.00;;
59300;SDS011;45073;52.740;6.784;2023-04-24T00:58:02;1.83;;;1.00;;
59300;SDS011;45073;52.740;6.784;2023-04-24T01:00:29;2.22;;;1.20;;
59300;SDS011;45073;52.740;6.784;2023-04-24T01:02:55;1.77;;;1.17;;
59300;SDS011;45073;52.740;6.784;2023-04-24T01:05:24;3.15;;;1.27;;
59300;SDS011;45073;52.740;6.784;2023-04-24T01:07:49;1.95;;;1.08;;
59300;SDS011;45073;52.740;6.784;2023-04-24T01:10:15;2.60;;;1.35;;
59300;SDS011;45073;52.740;6.784;2023-04-24T01:12:42;2.75;;;1.30;;
59300;SDS011;45073;52.740;6.784;2023-04-24T01:15:08;2.97;;;1.40;;
59300;SDS011;45073;52.740;6.784;2023-04-24T01:17:34;3.25;;;1.63;;
59300;SDS011;45073;52.740;6.784;2023-04-24T01:20:01;3.47;;;1.50;;
59300;SDS011;45073;52.740;6.784;2023-04-24T01:22:29;2.05;;;1.27;;
59300;SDS011;45073;52.740;6.784;2023-04-24T01:24:54;4.15;;;1.70;;
59300;SDS011;45073;52.740;6.784;2023-04-24T01:27:20;4.03;;;1.70;;
59300;SDS011;45073;52.740;6.784;2023-04-24T01:29:46;1.38;;;0.93;;
59300;SDS011;45073;52.740;6.784;2023-04-24T01:32:14;3.35;;;1.50;;
59300;SDS011;45073;52.740;6.784;2023-04-24T01:34:40;3.47;;;1.50;;
59300;SDS011;45073;52.740;6.784;2023-04-24T01:37:05;4.93;;;1.95;;
59300;SDS011;45073;52.740;6.784;2023-04-24T01:39:31;5.78;;;2.80;;
59300;SDS011;45073;52.740;6.784;2023-04-24T01:41:58;5.38;;;2.10;;
59300;SDS011;45073;52.740;6.784;2023-04-24T01:44:25;3.97;;;2.08;;
59300;SDS011;45073;52.740;6.784;2023-04-24T01:46:51;5.80;;;2.33;;
59300;SDS011;45073;52.740;6.784;2023-04-24T01:49:18;7.15;;;2.90;;
59300;SDS011;45073;52.740;6.784;2023-04-24T01:51:45;6.28;;;2.75;;
59300;SDS011;45073;52.740;6.784;2023-04-24T01:54:10;6.68;;;2.97;;
59300;SDS011;45073;52.740;6.784;2023-04-24T01:56:36;6.88;;;2.83;;
59300;SDS011;45073;52.740;6.784;2023-04-24T01:59:07;8.63;;;3.53;;
59300;SDS011;45073;52.740;6.784;2023-04-24T02:01:35;5.88;;;2.65;;
59300;SDS011;45073;52.740;6.784;2023-04-24T02:04:02;7.90;;;4.03;;
59300;SDS011;45073;52.740;6.784;2023-04-24T02:06:28;8.60;;;4.00;;
59300;SDS011;45073;52.740;6.784;2023-04-24T02:08:53;7.82;;;3.42;;
59300;SDS011;45073;52.740;6.784;2023-04-24T02:11:19;7.68;;;3.45;;
59300;SDS011;45073;52.740;6.784;2023-04-24T02:13:45;7.45;;;3.65;;
59300;SDS011;45073;52.740;6.784;2023-04-24T02:16:10;9.98;;;3.47;;
59300;SDS011;45073;52.740;6.784;2023-04-24T02:18:36;8.43;;;4.38;;
59300;SDS011;45073;52.740;6.784;2023-04-24T02:21:01;7.82;;;3.65;;
59300;SDS011;45073;52.740;6.784;2023-04-24T02:23:27;6.28;;;2.83;;
59300;SDS011;45073;52.740;6.784;2023-04-24T02:25:53;6.97;;;2.85;;
59300;SDS011;45073;52.740;6.784;2023-04-24T02:28:19;7.03;;;3.10;;
59300;SDS011;45073;52.740;6.784;2023-04-24T02:30:44;8.13;;;3.50;;
59300;SDS011;45073;52.740;6.784;2023-04-24T02:33:11;7.03;;;3.70;;
59300;SDS011;45073;52.740;6.784;2023-04-24T02:35:36;5.82;;;2.58;;
59300;SDS011;45073;52.740;6.784;2023-04-24T02:38:02;6.55;;;3.17;;
59300;SDS011;45073;52.740;6.784;2023-04-24T02:40:28;7.40;;;3.58;;
59300;SDS011;45073;52.740;6.784;2023-04-24T02:42:54;6.97;;;3.20;;
59300;SDS011;45073;52.740;6.784;2023-04-24T02:45:20;7.40;;;3.42;;
59300;SDS011;45073;52.740;6.784;2023-04-24T02:47:46;7.68;;;3.35;;
59300;SDS011;45073;52.740;6.784;2023-04-24T02:50:11;7.65;;;3.55;;
59300;SDS011;45073;52.740;6.784;2023-04-24T02:52:37;8.10;;;3.53;;
59300;SDS011;45073;52.740;6.784;2023-04-24T02:55:02;7.10;;;3.20;;
59300;SDS011;45073;52.740;6.784;2023-04-24T02:57:28;6.53;;;3.08;;
59300;SDS011;45073;52.740;6.784;2023-04-24T02:59:54;5.95;;;2.30;;
59300;SDS011;45073;52.740;6.784;2023-04-24T03:02:19;7.13;;;3.10;;
59300;SDS011;45073;52.740;6.784;2023-04-24T03:04:45;6.78;;;3.22;;
59300;SDS011;45073;52.740;6.784;2023-04-24T03:07:12;5.70;;;2.63;;
59300;SDS011;45073;52.740;6.784;2023-04-24T03:09:39;6.60;;;2.85;;
59300;SDS011;45073;52.740;6.784;2023-04-24T03:12:05;8.20;;;3.30;;
59300;SDS011;45073;52.740;6.784;2023-04-24T03:14:31;8.20;;;2.80;;
59300;SDS011;45073;52.740;6.784;2023-04-24T03:16:57;8.57;;;4.00;;
59300;SDS011;45073;52.740;6.784;2023-04-24T03:19:22;6.82;;;2.72;;
59300;SDS011;45073;52.740;6.784;2023-04-24T03:21:48;6.47;;;2.70;;
59300;SDS011;45073;52.740;6.784;2023-04-24T03:24:14;8.18;;;3.80;;
59300;SDS011;45073;52.740;6.784;2023-04-24T03:26:40;6.97;;;3.05;;
59300;SDS011;45073;52.740;6.784;2023-04-24T03:29:05;6.78;;;3.03;;
59300;SDS011;45073;52.740;6.784;2023-04-24T03:31:31;7.53;;;3.08;;
59300;SDS011;45073;52.740;6.784;2023-04-24T03:33:57;6.85;;;3.08;;
59300;SDS011;45073;52.740;6.784;2023-04-24T03:36:22;8.35;;;3.85;;
59300;SDS011;45073;52.740;6.784;2023-04-24T03:38:48;5.43;;;2.42;;
59300;SDS011;45073;52.740;6.784;2023-04-24T03:41:13;7.38;;;3.30;;
59300;SDS011;45073;52.740;6.784;2023-04-24T03:43:39;7.45;;;3.50;;
59300;SDS011;45073;52.740;6.784;2023-04-24T03:46:05;8.10;;;4.22;;
59300;SDS011;45073;52.740;6.784;2023-04-24T03:48:30;7.05;;;3.65;;
59300;SDS011;45073;52.740;6.784;2023-04-24T03:50:56;7.13;;;3.63;;
59300;SDS011;45073;52.740;6.784;2023-04-24T03:53:21;7.85;;;3.33;;
59300;SDS011;45073;52.740;6.784;2023-04-24T03:55:47;9.50;;;4.47;;
59300;SDS011;45073;52.740;6.784;2023-04-24T03:58:13;7.70;;;3.42;;
59300;SDS011;45073;52.740;6.784;2023-04-24T04:00:39;8.43;;;4.03;;
59300;SDS011;45073;52.740;6.784;2023-04-24T04:03:05;9.27;;;4.22;;
59300;SDS011;45073;52.740;6.784;2023-04-24T04:05:31;8.65;;;4.07;;
59300;SDS011;45073;52.740;6.784;2023-04-24T04:07:57;6.18;;;3.10;;
59300;SDS011;45073;52.740;6.784;2023-04-24T04:10:22;7.50;;;3.42;;
59300;SDS011;45073;52.740;6.784;2023-04-24T04:12:48;8.98;;;4.30;;
59300;SDS011;45073;52.740;6.784;2023-04-24T04:15:14;8.45;;;3.70;;
59300;SDS011;45073;52.740;6.784;2023-04-24T04:17:40;8.25;;;4.43;;
59300;SDS011;45073;52.740;6.784;2023-04-24T04:20:06;8.45;;;4.15;;
59300;SDS011;45073;52.740;6.784;2023-04-24T04:22:34;8.13;;;3.97;;
59300;SDS011;45073;52.740;6.784;2023-04-24T04:25:00;8.60;;;4.05;;
59300;SDS011;45073;52.740;6.784;2023-04-24T04:27:25;8.25;;;4.32;;
59300;SDS011;45073;52.740;6.784;2023-04-24T04:29:51;9.40;;;4.95;;
59300;SDS011;45073;52.740;6.784;2023-04-24T04:32:17;8.50;;;4.22;;
59300;SDS011;45073;52.740;6.784;2023-04-24T04:34:43;8.10;;;3.92;;
59300;SDS011;45073;52.740;6.784;2023-04-24T04:37:10;9.18;;;4.10;;
59300;SDS011;45073;52.740;6.784;2023-04-24T04:39:37;10.10;;;4.80;;
59300;SDS011;45073;52.740;6.784;2023-04-24T04:42:03;7.93;;;4.10;;
59300;SDS011;45073;52.740;6.784;2023-04-24T04:44:29;8.52;;;4.47;;
59300;SDS011;45073;52.740;6.784;2023-04-24T04:46:55;8.00;;;4.00;;
59300;SDS011;45073;52.740;6.784;2023-04-24T04:49:21;8.38;;;4.13;;
59300;SDS011;45073;52.740;6.784;2023-04-24T04:51:48;6.72;;;2.97;;
59300;SDS011;45073;52.740;6.784;2023-04-24T04:54:15;9.30;;;4.63;;
59300;SDS011;45073;52.740;6.784;2023-04-24T04:56:41;8.57;;;4.35;;
59300;SDS011;45073;52.740;6.784;2023-04-24T04:59:07;8.27;;;4.10;;
59300;SDS011;45073;52.740;6.784;2023-04-24T05:01:32;8.70;;;4.13;;
59300;SDS011;45073;52.740;6.784;2023-04-24T05:03:58;8.85;;;3.97;;
59300;SDS011;45073;52.740;6.784;2023-04-24T05:06:24;8.80;;;3.75;;
59300;SDS011;45073;52.740;6.784;2023-04-24T05:08:50;9.20;;;3.80;;
59300;SDS011;45073;52.740;6.784;2023-04-24T05:11:16;10.00;;;4.15;;
59300;SDS011;45073;52.740;6.784;2023-04-24T05:13:41;9.93;;;3.97;;
59300;SDS011;45073;52.740;6.784;2023-04-24T05:16:07;8.90;;;4.70;;
59300;SDS011;45073;52.740;6.784;2023-04-24T05:18:33;10.40;;;4.72;;
59300;SDS011;45073;52.740;6.784;2023-04-24T05:20:59;7.82;;;3.85;;
59300;SDS011;45073;52.740;6.784;2023-04-24T05:23:25;7.10;;;3.28;;
59300;SDS011;45073;52.740;6.784;2023-04-24T05:25:50;8.73;;;3.67;;
59300;SDS011;45073;52.740;6.784;2023-04-24T05:28:16;6.50;;;2.78;;
59300;SDS011;45073;52.740;6.784;2023-04-24T05:30:41;6.80;;;2.70;;
59300;SDS011;45073;52.740;6.784;2023-04-24T05:33:07;5.30;;;2.38;;
59300;SDS011;45073;52.740;6.784;2023-04-24T05:35:34;5.80;;;2.28;;
59300;SDS011;45073;52.740;6.784;2023-04-24T05:37:59;5.82;;;2.33;;
59300;SDS011;45073;52.740;6.784;2023-04-24T05:40:25;5.80;;;2.25;;
59300;SDS011;45073;52.740;6.784;2023-04-24T05:42:50;6.13;;;2.58;;
59300;SDS011;45073;52.740;6.784;2023-04-24T05:45:16;5.20;;;2.13;;
59300;SDS011;45073;52.740;6.784;2023-04-24T05:47:42;6.90;;;2.17;;
59300;SDS011;45073;52.740;6.784;2023-04-24T05:50:09;6.90;;;2.60;;
59300;SDS011;45073;52.740;6.784;2023-04-24T05:52:35;6.32;;;2.70;;
59300;SDS011;45073;52.740;6.784;2023-04-24T05:55:01;5.30;;;2.20;;
59300;SDS011;45073;52.740;6.784;2023-04-24T05:57:26;5.60;;;2.40;;
59300;SDS011;45073;52.740;6.784;2023-04-24T05:59:52;6.05;;;2.05;;
59300;SDS011;45073;52.740;6.784;2023-04-24T06:02:18;5.82;;;2.28;;
59300;SDS011;45073;52.740;6.784;2023-04-24T06:04:43;5.03;;;2.00;;
59300;SDS011;45073;52.740;6.784;2023-04-24T06:07:10;6.18;;;2.13;;
59300;SDS011;45073;52.740;6.784;2023-04-24T06:09:36;6.97;;;2.70;;
59300;SDS011;45073;52.740;6.784;2023-04-24T06:12:02;4.85;;;2.17;;
59300;SDS011;45073;52.740;6.784;2023-04-24T06:14:27;4.50;;;1.65;;
59300;SDS011;45073;52.740;6.784;2023-04-24T06:16:53;5.03;;;1.83;;
59300;SDS011;45073;52.740;6.784;2023-04-24T06:19:19;4.13;;;1.70;;
59300;SDS011;45073;52.740;6.784;2023-04-24T06:21:45;4.25;;;1.55;;
59300;SDS011;45073;52.740;6.784;2023-04-24T06:24:13;4.75;;;1.85;;
59300;SDS011;45073;52.740;6.784;2023-04-24T06:26:40;5.47;;;1.95;;
59300;SDS011;45073;52.740;6.784;2023-04-24T06:29:07;5.35;;;1.70;;
59300;SDS011;45073;52.740;6.784;2023-04-24T06:31:33;5.75;;;1.85;;
59300;SDS011;45073;52.740;6.784;2023-04-24T06:34:02;4.57;;;1.83;;
59300;SDS011;45073;52.740;6.784;2023-04-24T06:36:28;4.38;;;1.73;;
59300;SDS011;45073;52.740;6.784;2023-04-24T06:38:55;3.83;;;1.40;;
59300;SDS011;45073;52.740;6.784;2023-04-24T06:41:22;4.05;;;1.55;;
59300;SDS011;45073;52.740;6.784;2023-04-24T06:43:47;4.75;;;1.95;;
59300;SDS011;45073;52.740;6.784;2023-04-24T06:46:13;3.35;;;1.63;;
59300;SDS011;45073;52.740;6.784;2023-04-24T06:48:39;6.93;;;2.08;;
59300;SDS011;45073;52.740;6.784;2023-04-24T06:51:04;3.70;;;1.45;;
59300;SDS011;45073;52.740;6.784;2023-04-24T06:53:30;2.75;;;1.23;;
59300;SDS011;45073;52.740;6.784;2023-04-24T06:55:56;3.08;;;1.25;;
59300;SDS011;45073;52.740;6.784;2023-04-24T06:58:42;5.35;;;1.67;;
59300;SDS011;45073;52.740;6.784;2023-04-24T07:01:08;4.68;;;1.63;;
59300;SDS011;45073;52.740;6.784;2023-04-24T07:03:34;5.97;;;1.45;;
59300;SDS011;45073;52.740;6.784;2023-04-24T07:06:00;4.45;;;1.70;;
59300;SDS011;45073;52.740;6.784;2023-04-24T07:08:26;4.70;;;1.65;;
59300;SDS011;45073;52.740;6.784;2023-04-24T07:10:51;4.70;;;1.67;;
59300;SDS011;45073;52.740;6.784;2023-04-24T07:13:17;4.25;;;1.63;;
59300;SDS011;45073;52.740;6.784;2023-04-24T07:15:43;4.45;;;1.48;;
59300;SDS011;45073;52.740;6.784;2023-04-24T07:18:08;2.33;;;1.08;;
59300;SDS011;45073;52.740;6.784;2023-04-24T07:20:35;1.38;;;0.63;;
59300;SDS011;45073;52.740;6.784;2023-04-24T07:23:01;4.60;;;1.20;;
59300;SDS011;45073;52.740;6.784;2023-04-24T07:25:27;6.10;;;1.58;;
59300;SDS011;45073;52.740;6.784;2023-04-24T07:27:53;7.25;;;2.00;;
59300;SDS011;45073;52.740;6.784;2023-04-24T07:30:18;6.20;;;1.90;;
59300;SDS011;45073;52.740;6.784;2023-04-24T07:32:44;6.22;;;1.83;;
59300;SDS011;45073;52.740;6.784;2023-04-24T07:35:09;7.40;;;2.78;;
59300;SDS011;45073;52.740;6.784;2023-04-24T07:37:35;6.53;;;2.22;;
59300;SDS011;45073;52.740;6.784;2023-04-24T07:40:01;7.00;;;2.35;;
59300;SDS011;45073;52.740;6.784;2023-04-24T07:42:27;5.63;;;2.13;;
59300;SDS011;45073;52.740;6.784;2023-04-24T07:44:55;6.80;;;1.95;;
59300;SDS011;45073;52.740;6.784;2023-04-24T07:47:20;7.00;;;2.05;;
59300;SDS011;45073;52.740;6.784;2023-04-24T07:49:46;6.30;;;2.15;;
59300;SDS011;45073;52.740;6.784;2023-04-24T07:52:12;5.75;;;2.30;;
59300;SDS011;45073;52.740;6.784;2023-04-24T07:54:38;6.68;;;2.80;;
59300;SDS011;45073;52.740;6.784;2023-04-24T07:57:03;6.93;;;3.00;;
59300;SDS011;45073;52.740;6.784;2023-04-24T07:59:31;7.15;;;2.92;;
59300;SDS011;45073;52.740;6.784;2023-04-24T08:01:57;7.32;;;2.42;;
59300;SDS011;45073;52.740;6.784;2023-04-24T08:04:22;7.90;;;3.13;;
59300;SDS011;45073;52.740;6.784;2023-04-24T08:06:48;6.25;;;2.42;;
59300;SDS011;45073;52.740;6.784;2023-04-24T08:09:13;7.03;;;2.67;;
59300;SDS011;45073;52.740;6.784;2023-04-24T08:11:39;6.70;;;2.63;;
59300;SDS011;45073;52.740;6.784;2023-04-24T08:14:05;7.60;;;2.20;;
59300;SDS011;45073;52.740;6.784;2023-04-24T08:16:32;6.68;;;2.60;;
59300;SDS011;45073;52.740;6.784;2023-04-24T08:18:58;6.68;;;2.35;;
59300;SDS011;45073;52.740;6.784;2023-04-24T08:21:23;7.30;;;2.67;;
59300;SDS011;45073;52.740;6.784;2023-04-24T08:23:49;7.78;;;2.65;;
59300;SDS011;45073;52.740;6.784;2023-04-24T08:26:15;6.28;;;2.10;;
59300;SDS011;45073;52.740;6.784;2023-04-24T08:28:41;5.00;;;1.58;;
59300;SDS011;45073;52.740;6.784;2023-04-24T08:31:07;5.47;;;1.70;;
59300;SDS011;45073;52.740;6.784;2023-04-24T08:33:33;5.82;;;1.80;;
59300;SDS011;45073;52.740;6.784;2023-04-24T08:36:02;8.05;;;2.22;;
59300;SDS011;45073;52.740;6.784;2023-04-24T08:38:28;5.47;;;1.85;;
59300;SDS011;45073;52.740;6.784;2023-04-24T08:40:54;6.25;;;1.92;;
59300;SDS011;45073;52.740;6.784;2023-04-24T08:43:21;5.40;;;1.83;;
59300;SDS011;45073;52.740;6.784;2023-04-24T08:45:48;7.30;;;2.03;;
59300;SDS011;45073;52.740;6.784;2023-04-24T08:48:13;6.60;;;2.03;;
59300;SDS011;45073;52.740;6.784;2023-04-24T08:50:40;6.80;;;1.70;;
59300;SDS011;45073;52.740;6.784;2023-04-24T08:53:08;7.60;;;2.05;;
59300;SDS011;45073;52.740;6.784;2023-04-24T08:55:34;6.90;;;1.98;;
59300;SDS011;45073;52.740;6.784;2023-04-24T08:58:00;8.68;;;3.05;;
59300;SDS011;45073;52.740;6.784;2023-04-24T09:00:27;11.82;;;3.90;;
59300;SDS011;45073;52.740;6.784;2023-04-24T09:02:53;10.88;;;4.18;;
59300;SDS011;45073;52.740;6.784;2023-04-24T09:05:20;10.45;;;3.70;;
59300;SDS011;45073;52.740;6.784;2023-04-24T09:07:49;10.55;;;4.00;;
59300;SDS011;45073;52.740;6.784;2023-04-24T09:10:19;10.20;;;4.57;;
59300;SDS011;45073;52.740;6.784;2023-04-24T09:12:46;9.15;;;4.68;;
59300;SDS011;45073;52.740;6.784;2023-04-24T09:15:12;12.05;;;5.50;;
59300;SDS011;45073;52.740;6.784;2023-04-24T09:17:38;15.48;;;5.75;;
59300;SDS011;45073;52.740;6.784;2023-04-24T09:20:04;11.85;;;5.65;;
59300;SDS011;45073;52.740;6.784;2023-04-24T09:22:30;13.43;;;6.35;;
59300;SDS011;45073;52.740;6.784;2023-04-24T09:25:00;13.77;;;6.28;;
59300;SDS011;45073;52.740;6.784;2023-04-24T09:27:29;14.38;;;6.07;;
59300;SDS011;45073;52.740;6.784;2023-04-24T09:29:55;11.85;;;5.70;;
59300;SDS011;45073;52.740;6.784;2023-04-24T09:32:22;12.77;;;6.45;;
59300;SDS011;45073;52.740;6.784;2023-04-24T09:35:04;16.13;;;7.38;;
59300;SDS011;45073;52.740;6.784;2023-04-24T09:37:35;16.75;;;8.32;;
59300;SDS011;45073;52.740;6.784;2023-04-24T09:42:54;16.17;;;8.25;;
59300;SDS011;45073;52.740;6.784;2023-04-24T09:45:22;15.23;;;8.88;;
59300;SDS011;45073;52.740;6.784;2023-04-24T09:47:52;18.15;;;9.02;;
59300;SDS011;45073;52.740;6.784;2023-04-24T09:50:20;17.08;;;8.30;;
59300;SDS011;45073;52.740;6.784;2023-04-24T09:52:56;16.77;;;8.32;;
59300;SDS011;45073;52.740;6.784;2023-04-24T09:55:23;14.60;;;8.68;;
59300;SDS011;45073;52.740;6.784;2023-04-24T09:57:54;14.18;;;7.68;;
59300;SDS011;45073;52.740;6.784;2023-04-24T10:00:22;14.15;;;7.43;;
59300;SDS011;45073;52.740;6.784;2023-04-24T10:02:50;16.70;;;7.90;;
59300;SDS011;45073;52.740;6.784;2023-04-24T10:05:17;16.15;;;8.00;;
59300;SDS011;45073;52.740;6.784;2023-04-24T10:07:43;15.32;;;7.50;;
59300;SDS011;45073;52.740;6.784;2023-04-24T10:10:09;14.52;;;7.07;;
59300;SDS011;45073;52.740;6.784;2023-04-24T10:12:35;16.38;;;7.75;;
59300;SDS011;45073;52.740;6.784;2023-04-24T10:15:01;15.68;;;7.32;;
59300;SDS011;45073;52.740;6.784;2023-04-24T10:17:28;15.50;;;7.05;;
59300;SDS011;45073;52.740;6.784;2023-04-24T10:19:54;15.10;;;6.90;;
59300;SDS011;45073;52.740;6.784;2023-04-24T10:22:20;15.90;;;7.22;;
59300;SDS011;45073;52.740;6.784;2023-04-24T10:24:47;16.25;;;6.35;;
59300;SDS011;45073;52.740;6.784;2023-04-24T10:27:15;14.45;;;5.78;;
59300;SDS011;45073;52.740;6.784;2023-04-24T10:29:41;14.13;;;6.45;;
59300;SDS011;45073;52.740;6.784;2023-04-24T10:32:09;12.15;;;5.80;;
59300;SDS011;45073;52.740;6.784;2023-04-24T10:34:35;12.95;;;6.07;;
59300;SDS011;45073;52.740;6.784;2023-04-24T10:37:01;14.25;;;5.80;;
59300;SDS011;45073;52.740;6.784;2023-04-24T10:39:27;14.00;;;5.78;;
59300;SDS011;45073;52.740;6.784;2023-04-24T10:41:54;13.73;;;5.03;;
59300;SDS011;45073;52.740;6.784;2023-04-24T10:44:22;12.55;;;5.57;;
59300;SDS011;45073;52.740;6.784;2023-04-24T10:46:52;9.52;;;4.30;;
59300;SDS011;45073;52.740;6.784;2023-04-24T10:49:29;10.32;;;3.88;;
59300;SDS011;45073;52.740;6.784;2023-04-24T10:51:59;10.60;;;4.30;;
59300;SDS011;45073;52.740;6.784;2023-04-24T10:57:25;7.18;;;2.88;;
59300;SDS011;45073;52.740;6.784;2023-04-24T11:02:39;8.73;;;3.20;;
59300;SDS011;45073;52.740;6.784;2023-04-24T11:05:08;9.45;;;3.17;;
59300;SDS011;45073;52.740;6.784;2023-04-24T11:08:21;9.00;;;2.80;;
59300;SDS011;45073;52.740;6.784;2023-04-24T11:10:40;10.35;;;3.00;;
59300;SDS011;45073;52.740;6.784;2023-04-24T11:13:09;8.90;;;3.55;;
59300;SDS011;45073;52.740;6.784;2023-04-24T11:15:35;10.93;;;3.05;;
59300;SDS011;45073;52.740;6.784;2023-04-24T11:18:01;10.75;;;3.10;;
59300;SDS011;45073;52.740;6.784;2023-04-24T11:20:26;9.50;;;2.65;;
59300;SDS011;45073;52.740;6.784;2023-04-24T11:22:53;13.05;;;2.75;;
59300;SDS011;45073;52.740;6.784;2023-04-24T11:25:20;8.50;;;2.28;;
59300;SDS011;45073;52.740;6.784;2023-04-24T11:27:50;8.18;;;2.40;;
59300;SDS011;45073;52.740;6.784;2023-04-24T11:30:28;8.27;;;1.90;;
59300;SDS011;45073;52.740;6.784;2023-04-24T11:32:54;11.15;;;2.38;;
59300;SDS011;45073;52.740;6.784;2023-04-24T11:35:30;10.20;;;2.85;;
59300;SDS011;45073;52.740;6.784;2023-04-24T11:38:02;8.90;;;2.15;;
59300;SDS011;45073;52.740;6.784;2023-04-24T11:40:29;7.57;;;2.00;;
59300;SDS011;45073;52.740;6.784;2023-04-24T11:42:54;8.18;;;2.28;;
59300;SDS011;45073;52.740;6.784;2023-04-24T11:45:24;7.55;;;2.38;;
59300;SDS011;45073;52.740;6.784;2023-04-24T11:47:51;8.80;;;2.10;;
59300;SDS011;45073;52.740;6.784;2023-04-24T11:50:18;8.43;;;2.22;;
59300;SDS011;45073;52.740;6.784;2023-04-24T11:52:48;11.82;;;2.72;;
59300;SDS011;45073;52.740;6.784;2023-04-24T11:57:43;11.75;;;2.10;;
59300;SDS011;45073;52.740;6.784;2023-04-24T12:00:16;6.70;;;1.90;;
59300;SDS011;45073;52.740;6.784;2023-04-24T12:02:47;8.38;;;1.80;;
59300;SDS011;45073;52.740;6.784;2023-04-24T12:05:24;7.80;;;2.22;;
59300;SDS011;45073;52.740;6.784;2023-04-24T12:07:51;8.25;;;1.92;;
59300;SDS011;45073;52.740;6.784;2023-04-24T12:10:21;9.40;;;2.42;;
59300;SDS011;45073;52.740;6.784;2023-04-24T12:12:52;4.65;;;1.27;;
59300;SDS011;45073;52.740;6.784;2023-04-24T12:15:19;7.80;;;1.75;;
59300;SDS011;45073;52.740;6.784;2023-04-24T12:17:45;9.27;;;1.80;;
59300;SDS011;45073;52.740;6.784;2023-04-24T12:20:11;12.68;;;1.95;;
59300;SDS011;45073;52.740;6.784;2023-04-24T12:25:11;4.78;;;1.00;;
59300;SDS011;45073;52.740;6.784;2023-04-24T12:27:37;9.13;;;1.73;;
59300;SDS011;45073;52.740;6.784;2023-04-24T12:30:03;6.13;;;1.85;;
59300;SDS011;45073;52.740;6.784;2023-04-24T12:32:30;6.72;;;1.83;;
59300;SDS011;45073;52.740;6.784;2023-04-24T12:34:57;9.18;;;1.77;;
59300;SDS011;45073;52.740;6.784;2023-04-24T12:37:23;7.45;;;1.45;;
59300;SDS011;45073;52.740;6.784;2023-04-24T12:42:33;7.10;;;1.52;;
59300;SDS011;45073;52.740;6.784;2023-04-24T12:45:04;6.68;;;2.05;;
59300;SDS011;45073;52.740;6.784;2023-04-24T12:47:31;9.35;;;2.33;;
59300;SDS011;45073;52.740;6.784;2023-04-24T12:49:58;6.75;;;1.73;;
59300;SDS011;45073;52.740;6.784;2023-04-24T12:52:24;10.27;;;3.88;;
59300;SDS011;45073;52.740;6.784;2023-04-24T12:54:52;3.38;;;1.02;;
59300;SDS011;45073;52.740;6.784;2023-04-24T12:57:19;7.97;;;1.50;;
59300;SDS011;45073;52.740;6.784;2023-04-24T12:59:45;4.82;;;1.08;;
59300;SDS011;45073;52.740;6.784;2023-04-24T13:02:11;3.22;;;1.00;;
59300;SDS011;45073;52.740;6.784;2023-04-24T13:04:36;2.90;;;0.70;;
59300;SDS011;45073;52.740;6.784;2023-04-24T13:07:02;2.50;;;0.73;;
59300;SDS011;45073;52.740;6.784;2023-04-24T13:09:28;3.15;;;1.52;;
59300;SDS011;45073;52.740;6.784;2023-04-24T13:11:55;1.65;;;0.77;;
59300;SDS011;45073;52.740;6.784;2023-04-24T13:14:21;3.45;;;0.80;;
59300;SDS011;45073;52.740;6.784;2023-04-24T13:16:47;5.93;;;0.90;;
59300;SDS011;45073;52.740;6.784;2023-04-24T13:19:13;3.55;;;0.98;;
59300;SDS011;45073;52.740;6.784;2023-04-24T13:21:38;1.45;;;0.57;;
59300;SDS011;45073;52.740;6.784;2023-04-24T13:24:04;3.05;;;0.75;;
59300;SDS011;45073;52.740;6.784;2023-04-24T13:26:32;7.05;;;1.17;;
59300;SDS011;45073;52.740;6.784;2023-04-24T13:28:58;4.68;;;0.68;;
59300;SDS011;45073;52.740;6.784;2023-04-24T13:31:24;3.17;;;0.77;;
59300;SDS011;45073;52.740;6.784;2023-04-24T13:33:50;3.47;;;0.80;;
59300;SDS011;45073;52.740;6.784;2023-04-24T13:36:15;5.00;;;1.13;;
59300;SDS011;45073;52.740;6.784;2023-04-24T13:38:42;2.47;;;0.90;;
59300;SDS011;45073;52.740;6.784;2023-04-24T13:41:11;7.82;;;1.38;;
59300;SDS011;45073;52.740;6.784;2023-04-24T13:43:36;9.27;;;1.75;;
59300;SDS011;45073;52.740;6.784;2023-04-24T13:46:02;3.60;;;1.05;;
59300;SDS011;45073;52.740;6.784;2023-04-24T13:48:28;6.35;;;1.27;;
59300;SDS011;45073;52.740;6.784;2023-04-24T13:50:54;2.78;;;0.70;;
59300;SDS011;45073;52.740;6.784;2023-04-24T13:53:20;4.20;;;1.05;;
59300;SDS011;45073;52.740;6.784;2023-04-24T13:55:46;5.60;;;1.27;;
59300;SDS011;45073;52.740;6.784;2023-04-24T13:58:12;4.00;;;0.85;;
59300;SDS011;45073;52.740;6.784;2023-04-24T14:00:38;5.20;;;0.98;;
59300;SDS011;45073;52.740;6.784;2023-04-24T14:03:04;4.68;;;1.13;;
59300;SDS011;45073;52.740;6.784;2023-04-24T14:05:30;5.25;;;0.98;;
59300;SDS011;45073;52.740;6.784;2023-04-24T14:07:55;15.48;;;3.03;;
59300;SDS011;45073;52.740;6.784;2023-04-24T14:10:21;3.17;;;1.00;;
59300;SDS011;45073;52.740;6.784;2023-04-24T14:12:47;4.97;;;1.10;;
59300;SDS011;45073;52.740;6.784;2023-04-24T14:15:13;2.53;;;0.90;;
59300;SDS011;45073;52.740;6.784;2023-04-24T14:17:39;4.43;;;0.90;;
59300;SDS011;45073;52.740;6.784;2023-04-24T14:20:05;2.47;;;0.77;;
59300;SDS011;45073;52.740;6.784;2023-04-24T14:22:32;4.53;;;1.23;;
59300;SDS011;45073;52.740;6.784;2023-04-24T14:24:58;9.25;;;1.13;;
59300;SDS011;45073;52.740;6.784;2023-04-24T14:27:24;3.58;;;1.05;;
59300;SDS011;45073;52.740;6.784;2023-04-24T14:29:51;9.65;;;1.10;;
59300;SDS011;45073;52.740;6.784;2023-04-24T14:32:17;4.35;;;0.77;;
59300;SDS011;45073;52.740;6.784;2023-04-24T14:34:43;8.90;;;2.45;;
59300;SDS011;45073;52.740;6.784;2023-04-24T14:37:08;5.78;;;1.33;;
59300;SDS011;45073;52.740;6.784;2023-04-24T14:39:34;6.50;;;1.67;;
59300;SDS011;45073;52.740;6.784;2023-04-24T14:42:00;7.78;;;1.30;;
59300;SDS011;45073;52.740;6.784;2023-04-24T14:44:26;7.88;;;1.40;;
59300;SDS011;45073;52.740;6.784;2023-04-24T14:46:52;9.15;;;1.80;;
59300;SDS011;45073;52.740;6.784;2023-04-24T14:49:18;7.97;;;1.55;;
59300;SDS011;45073;52.740;6.784;2023-04-24T14:51:44;6.65;;;1.58;;
59300;SDS011;45073;52.740;6.784;2023-04-24T14:54:09;4.05;;;1.60;;
59300;SDS011;45073;52.740;6.784;2023-04-24T14:56:35;4.55;;;1.35;;
59300;SDS011;45073;52.740;6.784;2023-04-24T14:59:01;7.95;;;2.05;;